sensor_id;sensor_type;location;lat;lon;timestamp;temperature;humidity
44121;DHT22;29783;52.504;13.478;2024-03-06T00:02:05;1.80;90.40
44121;DHT22;29783;52.504;13.478;2024-03-06T00:04:30;1.80;90.50
44121;DHT22;29783;52.504;13.478;2024-03-06T00:06:56;1.80;90.70
44121;DHT22;29783;52.504;13.478;2024-03-06T00:09:23;1.80;90.50
44121;DHT22;29783;52.504;13.478;2024-03-06T00:11:49;1.80;90.60
44121;DHT22;29783;52.504;13.478;2024-03-06T00:14:18;1.80;90.70
44121;DHT22;29783;52.504;13.478;2024-03-06T00:16:44;1.80;90.60
44121;DHT22;29783;52.504;13.478;2024-03-06T00:19:09;1.70;90.70
44121;DHT22;29783;52.504;13.478;2024-03-06T00:21:35;1.70;90.90
44121;DHT22;29783;52.504;13.478;2024-03-06T00:24:04;1.70;91.10
44121;DHT22;29783;52.504;13.478;2024-03-06T00:26:30;1.60;91.30
44121;DHT22;29783;52.504;13.478;2024-03-06T00:28:55;1.60;91.20
44121;DHT22;29783;52.504;13.478;2024-03-06T00:31:21;1.50;91.10
44121;DHT22;29783;52.504;13.478;2024-03-06T00:33:48;1.50;91.30
44121;DHT22;29783;52.504;13.478;2024-03-06T00:36:13;1.50;91.50
44121;DHT22;29783;52.504;13.478;2024-03-06T00:38:39;1.50;91.80
44121;DHT22;29783;52.504;13.478;2024-03-06T00:41:05;1.50;91.70
44121;DHT22;29783;52.504;13.478;2024-03-06T00:43:30;1.50;91.80
44121;DHT22;29783;52.504;13.478;2024-03-06T00:45:56;1.50;91.90
44121;DHT22;29783;52.504;13.478;2024-03-06T00:48:22;1.40;91.80
44121;DHT22;29783;52.504;13.478;2024-03-06T00:50:48;1.50;92.10
44121;DHT22;29783;52.504;13.478;2024-03-06T00:53:14;1.40;92.10
44121;DHT22;29783;52.504;13.478;2024-03-06T00:55:39;1.40;92.10
44121;DHT22;29783;52.504;13.478;2024-03-06T00:58:05;1.30;91.90
44121;DHT22;29783;52.504;13.478;2024-03-06T01:00:32;1.30;92.00
44121;DHT22;29783;52.504;13.478;2024-03-06T01:02:58;1.30;92.00
44121;DHT22;29783;52.504;13.478;2024-03-06T01:05:23;1.30;92.30
44121;DHT22;29783;52.504;13.478;2024-03-06T01:07:49;1.20;92.20
44121;DHT22;29783;52.504;13.478;2024-03-06T01:10:15;1.30;92.40
44121;DHT22;29783;52.504;13.478;2024-03-06T01:12:40;1.30;92.50
44121;DHT22;29783;52.504;13.478;2024-03-06T01:15:06;1.20;92.70
44121;DHT22;29783;52.504;13.478;2024-03-06T01:17:33;1.20;92.60
44121;DHT22;29783;52.504;13.478;2024-03-06T01:19:59;1.20;92.70
44121;DHT22;29783;52.504;13.478;2024-03-06T01:22:26;1.30;93.00
44121;DHT22;29783;52.504;13.478;2024-03-06T01:24:52;1.20;92.90
44121;DHT22;29783;52.504;13.478;2024-03-06T01:27:17;1.20;92.90
44121;DHT22;29783;52.504;13.478;2024-03-06T01:29:43;1.20;93.00
44121;DHT22;29783;52.504;13.478;2024-03-06T01:32:08;1.20;92.90
44121;DHT22;29783;52.504;13.478;2024-03-06T01:34:35;1.10;92.80
44121;DHT22;29783;52.504;13.478;2024-03-06T01:37:01;1.10;93.10
44121;DHT22;29783;52.504;13.478;2024-03-06T01:39:27;1.20;93.10
44121;DHT22;29783;52.504;13.478;2024-03-06T01:41:52;1.20;93.00
44121;DHT22;29783;52.504;13.478;2024-03-06T01:44:18;1.10;93.00
44121;DHT22;29783;52.504;13.478;2024-03-06T01:46:45;1.10;93.00
44121;DHT22;29783;52.504;13.478;2024-03-06T01:49:11;1.10;93.10
44121;DHT22;29783;52.504;13.478;2024-03-06T01:51:38;1.10;93.10
44121;DHT22;29783;52.504;13.478;2024-03-06T01:54:04;1.00;93.10
44121;DHT22;29783;52.504;13.478;2024-03-06T01:56:31;1.00;93.20
44121;DHT22;29783;52.504;13.478;2024-03-06T01:58:58;1.00;93.30
44121;DHT22;29783;52.504;13.478;2024-03-06T02:01:24;0.90;93.20
44121;DHT22;29783;52.504;13.478;2024-03-06T02:03:51;0.90;93.30
44121;DHT22;29783;52.504;13.478;2024-03-06T02:06:17;0.90;93.40
44121;DHT22;29783;52.504;13.478;2024-03-06T02:08:45;0.90;93.40
44121;DHT22;29783;52.504;13.478;2024-03-06T02:11:11;0.90;93.50
44121;DHT22;29783;52.504;13.478;2024-03-06T02:13:39;0.80;93.60
44121;DHT22;29783;52.504;13.478;2024-03-06T02:16:05;0.80;93.60
44121;DHT22;29783;52.504;13.478;2024-03-06T02:18:31;0.80;93.80
44121;DHT22;29783;52.504;13.478;2024-03-06T02:20:56;0.80;93.80
44121;DHT22;29783;52.504;13.478;2024-03-06T02:23:22;0.80;93.80
44121;DHT22;29783;52.504;13.478;2024-03-06T02:25:49;0.80;93.80
44121;DHT22;29783;52.504;13.478;2024-03-06T02:28:15;0.80;93.90
44121;DHT22;29783;52.504;13.478;2024-03-06T02:30:42;0.90;93.90
44121;DHT22;29783;52.504;13.478;2024-03-06T02:33:08;0.90;93.90
44121;DHT22;29783;52.504;13.478;2024-03-06T02:35:37;0.80;94.00
44121;DHT22;29783;52.504;13.478;2024-03-06T02:38:05;0.80;94.00
44121;DHT22;29783;52.504;13.478;2024-03-06T02:40:31;0.80;94.00
44121;DHT22;29783;52.504;13.478;2024-03-06T02:42:57;0.80;94.20
44121;DHT22;29783;52.504;13.478;2024-03-06T02:45:22;0.80;94.30
44121;DHT22;29783;52.504;13.478;2024-03-06T02:47:48;0.80;94.50
44121;DHT22;29783;52.504;13.478;2024-03-06T02:50:14;0.80;94.40
44121;DHT22;29783;52.504;13.478;2024-03-06T02:52:40;0.80;94.40
44121;DHT22;29783;52.504;13.478;2024-03-06T02:55:06;0.80;94.40
44121;DHT22;29783;52.504;13.478;2024-03-06T02:57:32;0.70;94.30
44121;DHT22;29783;52.504;13.478;2024-03-06T02:59:58;0.70;94.30
44121;DHT22;29783;52.504;13.478;2024-03-06T03:02:24;0.70;94.40
44121;DHT22;29783;52.504;13.478;2024-03-06T03:04:51;0.70;94.40
44121;DHT22;29783;52.504;13.478;2024-03-06T03:07:18;0.70;94.60
44121;DHT22;29783;52.504;13.478;2024-03-06T03:09:45;0.70;94.60
44121;DHT22;29783;52.504;13.478;2024-03-06T03:12:11;0.70;94.60
44121;DHT22;29783;52.504;13.478;2024-03-06T03:14:37;0.70;94.70
44121;DHT22;29783;52.504;13.478;2024-03-06T03:17:03;0.60;94.70
44121;DHT22;29783;52.504;13.478;2024-03-06T03:19:31;0.60;94.80
44121;DHT22;29783;52.504;13.478;2024-03-06T03:21:56;0.70;94.90
44121;DHT22;29783;52.504;13.478;2024-03-06T03:24:23;0.60;94.90
44121;DHT22;29783;52.504;13.478;2024-03-06T03:26:51;0.70;95.00
44121;DHT22;29783;52.504;13.478;2024-03-06T03:29:17;0.60;94.90
44121;DHT22;29783;52.504;13.478;2024-03-06T03:31:42;0.60;95.00
44121;DHT22;29783;52.504;13.478;2024-03-06T03:34:08;0.60;94.90
44121;DHT22;29783;52.504;13.478;2024-03-06T03:36:34;0.60;94.90
44121;DHT22;29783;52.504;13.478;2024-03-06T03:39:00;0.60;94.90
44121;DHT22;29783;52.504;13.478;2024-03-06T03:41:26;0.60;94.90
44121;DHT22;29783;52.504;13.478;2024-03-06T03:43:51;0.60;95.00
44121;DHT22;29783;52.504;13.478;2024-03-06T03:46:17;0.50;94.90
44121;DHT22;29783;52.504;13.478;2024-03-06T03:48:42;0.50;94.90
44121;DHT22;29783;52.504;13.478;2024-03-06T03:51:09;0.50;95.10
44121;DHT22;29783;52.504;13.478;2024-03-06T03:53:35;0.50;95.00
44121;DHT22;29783;52.504;13.478;2024-03-06T03:56:01;0.60;95.10
44121;DHT22;29783;52.504;13.478;2024-03-06T03:58:27;0.60;95.20
44121;DHT22;29783;52.504;13.478;2024-03-06T04:00:52;0.60;95.10
44121;DHT22;29783;52.504;13.478;2024-03-06T04:03:20;0.60;95.20
44121;DHT22;29783;52.504;13.478;2024-03-06T04:05:47;0.60;95.30
44121;DHT22;29783;52.504;13.478;2024-03-06T04:08:12;0.50;95.20
44121;DHT22;29783;52.504;13.478;2024-03-06T04:10:38;0.50;95.20
44121;DHT22;29783;52.504;13.478;2024-03-06T04:13:04;0.50;95.30
44121;DHT22;29783;52.504;13.478;2024-03-06T04:15:29;0.50;95.40
44121;DHT22;29783;52.504;13.478;2024-03-06T04:17:56;0.50;95.30
44121;DHT22;29783;52.504;13.478;2024-03-06T04:20:22;0.50;95.50
44121;DHT22;29783;52.504;13.478;2024-03-06T04:22:47;0.50;95.40
44121;DHT22;29783;52.504;13.478;2024-03-06T04:25:15;0.50;95.50
44121;DHT22;29783;52.504;13.478;2024-03-06T04:27:41;0.40;95.40
44121;DHT22;29783;52.504;13.478;2024-03-06T04:30:07;0.40;95.40
44121;DHT22;29783;52.504;13.478;2024-03-06T04:32:33;0.40;95.50
44121;DHT22;29783;52.504;13.478;2024-03-06T04:34:58;0.50;95.60
44121;DHT22;29783;52.504;13.478;2024-03-06T04:37:24;0.50;95.70
44121;DHT22;29783;52.504;13.478;2024-03-06T04:39:52;0.50;95.70
44121;DHT22;29783;52.504;13.478;2024-03-06T04:42:17;0.60;95.70
44121;DHT22;29783;52.504;13.478;2024-03-06T04:44:45;0.70;95.80
44121;DHT22;29783;52.504;13.478;2024-03-06T04:47:11;0.70;95.70
44121;DHT22;29783;52.504;13.478;2024-03-06T04:49:37;0.60;95.50
44121;DHT22;29783;52.504;13.478;2024-03-06T04:52:02;0.60;95.60
44121;DHT22;29783;52.504;13.478;2024-03-06T04:54:29;0.60;95.70
44121;DHT22;29783;52.504;13.478;2024-03-06T04:56:55;0.60;95.60
44121;DHT22;29783;52.504;13.478;2024-03-06T04:59:21;0.60;95.60
44121;DHT22;29783;52.504;13.478;2024-03-06T05:01:47;0.50;95.60
44121;DHT22;29783;52.504;13.478;2024-03-06T05:04:12;0.50;95.50
44121;DHT22;29783;52.504;13.478;2024-03-06T05:06:38;0.70;95.80
44121;DHT22;29783;52.504;13.478;2024-03-06T05:09:04;0.60;95.60
44121;DHT22;29783;52.504;13.478;2024-03-06T05:11:31;0.50;95.50
44121;DHT22;29783;52.504;13.478;2024-03-06T05:13:59;0.50;95.60
44121;DHT22;29783;52.504;13.478;2024-03-06T05:16:25;0.60;95.60
44121;DHT22;29783;52.504;13.478;2024-03-06T05:18:52;0.60;95.70
44121;DHT22;29783;52.504;13.478;2024-03-06T05:21:18;0.60;95.60
44121;DHT22;29783;52.504;13.478;2024-03-06T05:23:43;0.60;95.60
44121;DHT22;29783;52.504;13.478;2024-03-06T05:26:09;0.60;95.60
44121;DHT22;29783;52.504;13.478;2024-03-06T05:28:35;0.50;95.60
44121;DHT22;29783;52.504;13.478;2024-03-06T05:31:00;0.60;95.50
44121;DHT22;29783;52.504;13.478;2024-03-06T05:33:26;0.60;95.60
44121;DHT22;29783;52.504;13.478;2024-03-06T05:35:54;0.50;95.60
44121;DHT22;29783;52.504;13.478;2024-03-06T05:38:20;0.50;95.60
44121;DHT22;29783;52.504;13.478;2024-03-06T05:40:47;0.60;95.70
44121;DHT22;29783;52.504;13.478;2024-03-06T05:43:13;0.70;95.80
44121;DHT22;29783;52.504;13.478;2024-03-06T05:45:38;0.70;95.70
44121;DHT22;29783;52.504;13.478;2024-03-06T05:48:04;0.80;95.70
44121;DHT22;29783;52.504;13.478;2024-03-06T05:50:30;0.80;95.60
44121;DHT22;29783;52.504;13.478;2024-03-06T05:52:57;0.80;95.50
44121;DHT22;29783;52.504;13.478;2024-03-06T05:55:23;0.80;95.60
44121;DHT22;29783;52.504;13.478;2024-03-06T05:57:48;0.90;95.70
44121;DHT22;29783;52.504;13.478;2024-03-06T06:00:15;0.90;95.60
44121;DHT22;29783;52.504;13.478;2024-03-06T06:02:43;0.90;95.50
44121;DHT22;29783;52.504;13.478;2024-03-06T06:05:11;0.80;95.50
44121;DHT22;29783;52.504;13.478;2024-03-06T06:07:36;1.00;95.60
44121;DHT22;29783;52.504;13.478;2024-03-06T06:10:04;1.00;95.50
44121;DHT22;29783;52.504;13.478;2024-03-06T06:12:33;1.00;95.40
44121;DHT22;29783;52.504;13.478;2024-03-06T06:14:59;1.00;95.50
44121;DHT22;29783;52.504;13.478;2024-03-06T06:17:24;1.10;95.40
44121;DHT22;29783;52.504;13.478;2024-03-06T06:19:50;1.10;95.40
44121;DHT22;29783;52.504;13.478;2024-03-06T06:22:16;1.10;95.40
44121;DHT22;29783;52.504;13.478;2024-03-06T06:24:42;1.00;95.40
44121;DHT22;29783;52.504;13.478;2024-03-06T06:27:07;1.10;95.50
44121;DHT22;29783;52.504;13.478;2024-03-06T06:29:33;1.10;95.40
44121;DHT22;29783;52.504;13.478;2024-03-06T06:31:59;1.10;95.50
44121;DHT22;29783;52.504;13.478;2024-03-06T06:34:24;1.20;95.50
44121;DHT22;29783;52.504;13.478;2024-03-06T06:36:53;1.20;95.50
44121;DHT22;29783;52.504;13.478;2024-03-06T06:39:19;1.20;95.40
44121;DHT22;29783;52.504;13.478;2024-03-06T06:41:44;1.30;95.50
44121;DHT22;29783;52.504;13.478;2024-03-06T06:44:10;1.30;95.50
44121;DHT22;29783;52.504;13.478;2024-03-06T06:46:36;1.30;95.50
44121;DHT22;29783;52.504;13.478;2024-03-06T06:49:01;1.40;95.50
44121;DHT22;29783;52.504;13.478;2024-03-06T06:51:27;1.50;95.40
44121;DHT22;29783;52.504;13.478;2024-03-06T06:53:52;1.50;95.50
44121;DHT22;29783;52.504;13.478;2024-03-06T06:56:18;1.50;95.40
44121;DHT22;29783;52.504;13.478;2024-03-06T06:58:44;1.60;95.30
44121;DHT22;29783;52.504;13.478;2024-03-06T07:01:10;1.60;95.10
44121;DHT22;29783;52.504;13.478;2024-03-06T07:03:35;1.70;95.00
44121;DHT22;29783;52.504;13.478;2024-03-06T07:06:01;1.80;94.80
44121;DHT22;29783;52.504;13.478;2024-03-06T07:08:28;1.80;94.70
44121;DHT22;29783;52.504;13.478;2024-03-06T07:10:54;1.80;94.70
44121;DHT22;29783;52.504;13.478;2024-03-06T07:13:20;1.90;94.70
44121;DHT22;29783;52.504;13.478;2024-03-06T07:15:46;1.90;94.60
44121;DHT22;29783;52.504;13.478;2024-03-06T07:18:12;2.00;94.70
44121;DHT22;29783;52.504;13.478;2024-03-06T07:20:39;2.10;94.90
44121;DHT22;29783;52.504;13.478;2024-03-06T07:23:05;2.20;94.50
44121;DHT22;29783;52.504;13.478;2024-03-06T07:25:31;2.20;94.30
44121;DHT22;29783;52.504;13.478;2024-03-06T07:27:56;2.30;94.20
44121;DHT22;29783;52.504;13.478;2024-03-06T07:30:22;2.30;94.20
44121;DHT22;29783;52.504;13.478;2024-03-06T07:32:47;2.40;94.00
44121;DHT22;29783;52.504;13.478;2024-03-06T07:35:13;2.70;93.70
44121;DHT22;29783;52.504;13.478;2024-03-06T07:37:39;2.70;93.00
44121;DHT22;29783;52.504;13.478;2024-03-06T07:40:08;2.70;92.80
44121;DHT22;29783;52.504;13.478;2024-03-06T07:42:35;2.80;92.80
44121;DHT22;29783;52.504;13.478;2024-03-06T07:45:00;2.80;92.90
44121;DHT22;29783;52.504;13.478;2024-03-06T07:47:26;2.90;93.00
44121;DHT22;29783;52.504;13.478;2024-03-06T07:49:52;3.00;91.90
44121;DHT22;29783;52.504;13.478;2024-03-06T07:52:18;3.10;91.70
44121;DHT22;29783;52.504;13.478;2024-03-06T07:54:43;3.20;91.00
44121;DHT22;29783;52.504;13.478;2024-03-06T07:57:09;3.30;90.70
44121;DHT22;29783;52.504;13.478;2024-03-06T07:59:35;3.40;90.10
44121;DHT22;29783;52.504;13.478;2024-03-06T08:02:01;3.60;89.80
44121;DHT22;29783;52.504;13.478;2024-03-06T08:04:26;3.70;89.50
44121;DHT22;29783;52.504;13.478;2024-03-06T08:06:52;3.80;88.50
44121;DHT22;29783;52.504;13.478;2024-03-06T08:09:18;3.80;88.00
44121;DHT22;29783;52.504;13.478;2024-03-06T08:11:45;3.90;87.50
44121;DHT22;29783;52.504;13.478;2024-03-06T08:14:11;4.00;86.60
44121;DHT22;29783;52.504;13.478;2024-03-06T08:16:36;4.00;86.10
44121;DHT22;29783;52.504;13.478;2024-03-06T08:19:03;4.10;85.90
44121;DHT22;29783;52.504;13.478;2024-03-06T08:21:28;4.20;86.00
44121;DHT22;29783;52.504;13.478;2024-03-06T08:23:54;4.40;85.90
44121;DHT22;29783;52.504;13.478;2024-03-06T08:26:19;4.50;85.20
44121;DHT22;29783;52.504;13.478;2024-03-06T08:28:45;4.60;84.70
44121;DHT22;29783;52.504;13.478;2024-03-06T08:31:11;4.70;83.90
44121;DHT22;29783;52.504;13.478;2024-03-06T08:33:36;4.80;83.10
44121;DHT22;29783;52.504;13.478;2024-03-06T08:36:03;4.80;82.70
44121;DHT22;29783;52.504;13.478;2024-03-06T08:38:28;4.90;82.80
44121;DHT22;29783;52.504;13.478;2024-03-06T08:40:54;5.00;82.80
44121;DHT22;29783;52.504;13.478;2024-03-06T08:43:20;5.10;82.30
44121;DHT22;29783;52.504;13.478;2024-03-06T08:45:46;5.20;81.30
44121;DHT22;29783;52.504;13.478;2024-03-06T08:48:11;5.30;81.00
44121;DHT22;29783;52.504;13.478;2024-03-06T08:50:38;5.30;80.70
44121;DHT22;29783;52.504;13.478;2024-03-06T08:53:04;5.30;80.20
44121;DHT22;29783;52.504;13.478;2024-03-06T08:55:30;5.40;80.20
44121;DHT22;29783;52.504;13.478;2024-03-06T08:57:55;5.50;79.80
44121;DHT22;29783;52.504;13.478;2024-03-06T09:00:21;5.50;79.50
44121;DHT22;29783;52.504;13.478;2024-03-06T09:02:47;5.60;79.00
44121;DHT22;29783;52.504;13.478;2024-03-06T09:05:12;5.70;79.60
44121;DHT22;29783;52.504;13.478;2024-03-06T09:07:41;5.70;79.10
44121;DHT22;29783;52.504;13.478;2024-03-06T09:10:08;5.80;78.20
44121;DHT22;29783;52.504;13.478;2024-03-06T09:12:35;5.80;77.90
44121;DHT22;29783;52.504;13.478;2024-03-06T09:15:02;6.00;77.10
44121;DHT22;29783;52.504;13.478;2024-03-06T09:17:28;5.90;76.70
44121;DHT22;29783;52.504;13.478;2024-03-06T09:19:54;6.10;77.30
44121;DHT22;29783;52.504;13.478;2024-03-06T09:22:20;6.10;76.60
44121;DHT22;29783;52.504;13.478;2024-03-06T09:24:45;6.20;76.00
44121;DHT22;29783;52.504;13.478;2024-03-06T09:27:12;6.20;75.50
44121;DHT22;29783;52.504;13.478;2024-03-06T09:29:39;6.30;75.60
44121;DHT22;29783;52.504;13.478;2024-03-06T09:32:05;6.50;75.00
44121;DHT22;29783;52.504;13.478;2024-03-06T09:34:31;6.50;73.70
44121;DHT22;29783;52.504;13.478;2024-03-06T09:36:56;6.40;74.00
44121;DHT22;29783;52.504;13.478;2024-03-06T09:39:22;6.70;73.90
44121;DHT22;29783;52.504;13.478;2024-03-06T09:41:51;7.00;73.20
44121;DHT22;29783;52.504;13.478;2024-03-06T09:44:17;7.20;72.10
44121;DHT22;29783;52.504;13.478;2024-03-06T09:46:44;7.60;71.60
44121;DHT22;29783;52.504;13.478;2024-03-06T09:49:11;8.00;69.90
44121;DHT22;29783;52.504;13.478;2024-03-06T09:51:42;8.30;68.30
44121;DHT22;29783;52.504;13.478;2024-03-06T09:54:11;8.30;68.80
44121;DHT22;29783;52.504;13.478;2024-03-06T09:56:39;8.50;67.30
44121;DHT22;29783;52.504;13.478;2024-03-06T09:59:04;8.80;66.60
44121;DHT22;29783;52.504;13.478;2024-03-06T10:01:31;8.60;67.20
44121;DHT22;29783;52.504;13.478;2024-03-06T10:03:57;8.60;66.30
44121;DHT22;29783;52.504;13.478;2024-03-06T10:06:23;8.70;66.70
44121;DHT22;29783;52.504;13.478;2024-03-06T10:08:50;8.60;66.70
44121;DHT22;29783;52.504;13.478;2024-03-06T10:11:17;8.30;66.80
44121;DHT22;29783;52.504;13.478;2024-03-06T10:13:42;8.00;67.70
44121;DHT22;29783;52.504;13.478;2024-03-06T10:16:08;7.70;68.80
44121;DHT22;29783;52.504;13.478;2024-03-06T10:18:35;7.50;69.90
44121;DHT22;29783;52.504;13.478;2024-03-06T10:21:01;7.20;70.50
44121;DHT22;29783;52.504;13.478;2024-03-06T10:23:27;7.00;71.80
44121;DHT22;29783;52.504;13.478;2024-03-06T10:25:56;7.10;71.50
44121;DHT22;29783;52.504;13.478;2024-03-06T10:28:22;7.30;71.20
44121;DHT22;29783;52.504;13.478;2024-03-06T10:30:49;7.20;71.40
44121;DHT22;29783;52.504;13.478;2024-03-06T10:33:17;7.30;70.80
44121;DHT22;29783;52.504;13.478;2024-03-06T10:35:47;7.40;70.40
44121;DHT22;29783;52.504;13.478;2024-03-06T10:38:19;7.50;70.00
44121;DHT22;29783;52.504;13.478;2024-03-06T10:40:45;7.40;70.30
44121;DHT22;29783;52.504;13.478;2024-03-06T10:43:11;7.40;70.30
44121;DHT22;29783;52.504;13.478;2024-03-06T10:48:04;7.40;69.80
44121;DHT22;29783;52.504;13.478;2024-03-06T10:50:30;7.80;68.60
44121;DHT22;29783;52.504;13.478;2024-03-06T10:52:56;8.00;66.30
44121;DHT22;29783;52.504;13.478;2024-03-06T10:55:23;8.10;66.00
44121;DHT22;29783;52.504;13.478;2024-03-06T10:57:52;8.60;65.10
44121;DHT22;29783;52.504;13.478;2024-03-06T11:00:18;8.80;63.60
44121;DHT22;29783;52.504;13.478;2024-03-06T11:02:47;9.10;64.60
44121;DHT22;29783;52.504;13.478;2024-03-06T11:05:16;8.50;65.80
44121;DHT22;29783;52.504;13.478;2024-03-06T11:07:42;8.20;67.20
44121;DHT22;29783;52.504;13.478;2024-03-06T11:10:09;8.10;66.60
44121;DHT22;29783;52.504;13.478;2024-03-06T11:12:42;8.10;66.60
44121;DHT22;29783;52.504;13.478;2024-03-06T11:17:36;8.20;65.60
44121;DHT22;29783;52.504;13.478;2024-03-06T11:28:20;8.60;64.50
44121;DHT22;29783;52.504;13.478;2024-03-06T11:31:08;8.80;64.20
44121;DHT22;29783;52.504;13.478;2024-03-06T11:38:59;9.60;61.70
44121;DHT22;29783;52.504;13.478;2024-03-06T11:41:31;9.50;60.60
44121;DHT22;29783;52.504;13.478;2024-03-06T11:44:00;9.20;61.40
44121;DHT22;29783;52.504;13.478;2024-03-06T11:46:48;9.10;61.50
44121;DHT22;29783;52.504;13.478;2024-03-06T11:49:19;8.90;61.30
44121;DHT22;29783;52.504;13.478;2024-03-06T11:51:50;9.10;61.00
44121;DHT22;29783;52.504;13.478;2024-03-06T11:54:17;9.50;60.30
44121;DHT22;29783;52.504;13.478;2024-03-06T11:56:49;9.80;58.70
44121;DHT22;29783;52.504;13.478;2024-03-06T12:01:55;9.70;57.20
44121;DHT22;29783;52.504;13.478;2024-03-06T12:04:21;9.70;57.20
44121;DHT22;29783;52.504;13.478;2024-03-06T12:06:48;9.80;56.70
44121;DHT22;29783;52.504;13.478;2024-03-06T12:09:14;9.70;56.90
44121;DHT22;29783;52.504;13.478;2024-03-06T12:11:40;9.70;58.10
44121;DHT22;29783;52.504;13.478;2024-03-06T12:14:17;9.70;58.40
44121;DHT22;29783;52.504;13.478;2024-03-06T12:16:58;9.50;59.40
44121;DHT22;29783;52.504;13.478;2024-03-06T12:19:28;9.30;59.60
44121;DHT22;29783;52.504;13.478;2024-03-06T12:21:59;9.30;59.30
44121;DHT22;29783;52.504;13.478;2024-03-06T12:24:25;9.60;59.10
44121;DHT22;29783;52.504;13.478;2024-03-06T12:27:01;10.00;58.10
44121;DHT22;29783;52.504;13.478;2024-03-06T12:29:29;10.30;55.70
44121;DHT22;29783;52.504;13.478;2024-03-06T12:32:02;10.30;54.90
44121;DHT22;29783;52.504;13.478;2024-03-06T12:34:28;10.40;53.70
44121;DHT22;29783;52.504;13.478;2024-03-06T12:36:55;10.20;54.30
44121;DHT22;29783;52.504;13.478;2024-03-06T12:39:23;10.00;55.50
44121;DHT22;29783;52.504;13.478;2024-03-06T12:41:52;9.60;57.20
44121;DHT22;29783;52.504;13.478;2024-03-06T12:44:21;9.50;58.10
44121;DHT22;29783;52.504;13.478;2024-03-06T12:46:47;9.90;57.20
44121;DHT22;29783;52.504;13.478;2024-03-06T12:49:12;10.30;56.30
44121;DHT22;29783;52.504;13.478;2024-03-06T12:51:38;10.60;55.90
44121;DHT22;29783;52.504;13.478;2024-03-06T12:54:03;10.00;57.00
44121;DHT22;29783;52.504;13.478;2024-03-06T12:56:29;10.10;57.40
44121;DHT22;29783;52.504;13.478;2024-03-06T12:58:55;9.90;58.40
44121;DHT22;29783;52.504;13.478;2024-03-06T13:01:20;10.00;58.30
44121;DHT22;29783;52.504;13.478;2024-03-06T13:03:46;9.80;58.70
44121;DHT22;29783;52.504;13.478;2024-03-06T13:06:12;10.00;58.60
44121;DHT22;29783;52.504;13.478;2024-03-06T13:08:37;10.50;57.60
44121;DHT22;29783;52.504;13.478;2024-03-06T13:11:03;10.40;57.50
44121;DHT22;29783;52.504;13.478;2024-03-06T13:13:29;10.30;58.30
44121;DHT22;29783;52.504;13.478;2024-03-06T13:15:56;10.50;57.40
44121;DHT22;29783;52.504;13.478;2024-03-06T13:18:22;11.30;55.60
44121;DHT22;29783;52.504;13.478;2024-03-06T13:20:48;12.60;52.10
44121;DHT22;29783;52.504;13.478;2024-03-06T13:23:13;13.40;49.50
44121;DHT22;29783;52.504;13.478;2024-03-06T13:25:39;13.60;47.60
44121;DHT22;29783;52.504;13.478;2024-03-06T13:28:05;13.80;47.70
44121;DHT22;29783;52.504;13.478;2024-03-06T13:30:31;13.80;47.20
44121;DHT22;29783;52.504;13.478;2024-03-06T13:32:58;13.90;45.90
44121;DHT22;29783;52.504;13.478;2024-03-06T13:35:24;13.00;46.50
44121;DHT22;29783;52.504;13.478;2024-03-06T13:37:50;12.00;48.90
44121;DHT22;29783;52.504;13.478;2024-03-06T13:40:16;11.40;51.10
44121;DHT22;29783;52.504;13.478;2024-03-06T13:42:42;10.80;53.20
44121;DHT22;29783;52.504;13.478;2024-03-06T13:45:09;10.40;55.00
44121;DHT22;29783;52.504;13.478;2024-03-06T13:47:42;10.00;56.40
44121;DHT22;29783;52.504;13.478;2024-03-06T13:50:15;9.70;58.00
44121;DHT22;29783;52.504;13.478;2024-03-06T13:52:41;9.60;58.20
44121;DHT22;29783;52.504;13.478;2024-03-06T13:55:08;9.60;58.70
44121;DHT22;29783;52.504;13.478;2024-03-06T13:57:35;9.50;57.70
44121;DHT22;29783;52.504;13.478;2024-03-06T14:00:03;9.40;57.20
44121;DHT22;29783;52.504;13.478;2024-03-06T14:02:30;9.50;57.80
44121;DHT22;29783;52.504;13.478;2024-03-06T14:04:56;9.30;58.30
44121;DHT22;29783;52.504;13.478;2024-03-06T14:07:22;9.30;58.30
44121;DHT22;29783;52.504;13.478;2024-03-06T14:09:49;9.40;58.20
44121;DHT22;29783;52.504;13.478;2024-03-06T14:12:15;9.50;58.60
44121;DHT22;29783;52.504;13.478;2024-03-06T14:14:41;9.50;56.70
44121;DHT22;29783;52.504;13.478;2024-03-06T14:17:06;9.30;55.20
44121;DHT22;29783;52.504;13.478;2024-03-06T14:19:32;9.30;55.90
44121;DHT22;29783;52.504;13.478;2024-03-06T14:21:58;9.10;57.20
44121;DHT22;29783;52.504;13.478;2024-03-06T14:24:23;9.10;57.40
44121;DHT22;29783;52.504;13.478;2024-03-06T14:26:49;9.10;58.40
44121;DHT22;29783;52.504;13.478;2024-03-06T14:29:15;9.00;59.40
44121;DHT22;29783;52.504;13.478;2024-03-06T14:31:40;8.80;60.00
44121;DHT22;29783;52.504;13.478;2024-03-06T14:34:06;8.70;60.70
44121;DHT22;29783;52.504;13.478;2024-03-06T14:36:32;8.60;61.00
44121;DHT22;29783;52.504;13.478;2024-03-06T14:38:59;8.60;61.20
44121;DHT22;29783;52.504;13.478;2024-03-06T14:41:25;8.60;61.00
44121;DHT22;29783;52.504;13.478;2024-03-06T14:43:50;8.70;61.30
44121;DHT22;29783;52.504;13.478;2024-03-06T14:46:16;8.70;60.90
44121;DHT22;29783;52.504;13.478;2024-03-06T14:48:41;8.70;60.80
44121;DHT22;29783;52.504;13.478;2024-03-06T14:51:07;8.80;61.10
44121;DHT22;29783;52.504;13.478;2024-03-06T14:53:34;8.70;61.10
44121;DHT22;29783;52.504;13.478;2024-03-06T14:55:59;8.80;60.20
44121;DHT22;29783;52.504;13.478;2024-03-06T14:58:26;8.80;59.80
44121;DHT22;29783;52.504;13.478;2024-03-06T15:00:51;8.80;59.70
44121;DHT22;29783;52.504;13.478;2024-03-06T15:03:17;8.80;60.10
44121;DHT22;29783;52.504;13.478;2024-03-06T15:05:44;8.80;61.10
44121;DHT22;29783;52.504;13.478;2024-03-06T15:08:13;8.80;61.40
44121;DHT22;29783;52.504;13.478;2024-03-06T15:10:39;8.80;61.70
44121;DHT22;29783;52.504;13.478;2024-03-06T15:13:05;8.90;61.60
44121;DHT22;29783;52.504;13.478;2024-03-06T15:15:30;8.80;62.30
44121;DHT22;29783;52.504;13.478;2024-03-06T15:17:57;8.80;62.50
44121;DHT22;29783;52.504;13.478;2024-03-06T15:20:22;8.80;63.10
44121;DHT22;29783;52.504;13.478;2024-03-06T15:22:48;8.80;63.50
44121;DHT22;29783;52.504;13.478;2024-03-06T15:25:14;8.70;64.30
44121;DHT22;29783;52.504;13.478;2024-03-06T15:27:40;8.80;64.30
44121;DHT22;29783;52.504;13.478;2024-03-06T15:30:07;8.70;64.60
44121;DHT22;29783;52.504;13.478;2024-03-06T15:32:34;8.60;65.30
44121;DHT22;29783;52.504;13.478;2024-03-06T15:35:00;8.70;65.70
44121;DHT22;29783;52.504;13.478;2024-03-06T15:37:26;8.60;66.10
44121;DHT22;29783;52.504;13.478;2024-03-06T15:39:52;8.70;66.20
44121;DHT22;29783;52.504;13.478;2024-03-06T15:42:18;8.70;66.40
44121;DHT22;29783;52.504;13.478;2024-03-06T15:44:43;8.60;66.90
44121;DHT22;29783;52.504;13.478;2024-03-06T15:47:09;8.40;67.60